Time;durP1;ratioP1;P1;durP2;ratioP2;P2;SDS_P1;SDS_P2;PMS_P1;PMS_P2;Temp;Humidity;BMP_temperature;BMP_pressure;BME280_temperature;BME280_humidity;BME280_pressure;Samples;Min_cycle;Max_cycle;Signal;HPM_P1;HPM_P2
2021/07/22 00:01:50;;;;;;;9.57;8.02;;;;;;;;;;5092191;28;20099;-63
2021/07/22 00:04:16;;;;;;;10.55;8.10;;;;;;;;;;5085819;28;20062;-63
2021/07/22 00:06:41;;;;;;;9.77;8.00;;;;;;;;;;5094155;28;20032;-63
2021/07/22 00:09:06;;;;;;;9.90;8.27;;;;;;;;;;5093433;28;20115;-62
2021/07/22 00:11:31;;;;;;;11.75;9.00;;;;;;;;;;5093622;28;20393;-63
2021/07/22 00:13:57;;;;;;;13.45;8.88;;;;;;;;;;5090468;28;20028;-62
2021/07/22 00:16:22;;;;;;;9.85;8.25;;;;;;;;;;5093830;28;20450;-63
2021/07/22 00:18:47;;;;;;;10.77;8.77;;;;;;;;;;5094314;28;20024;-62
2021/07/22 00:21:12;;;;;;;11.13;8.60;;;;;;;;;;5090843;28;20024;-63
2021/07/22 00:23:38;;;;;;;10.13;8.13;;;;;;;;;;5091831;28;20047;-63
2021/07/22 00:26:06;;;;;;;9.75;7.93;;;;;;;;;;5092825;28;20383;-65
2021/07/22 00:28:31;;;;;;;9.95;8.23;;;;;;;;;;5094026;28;20027;-62
2021/07/22 00:30:57;;;;;;;10.45;8.40;;;;;;;;;;5091863;28;20035;-63
2021/07/22 00:33:23;;;;;;;12.30;8.20;;;;;;;;;;5090473;28;20020;-64
2021/07/22 00:35:48;;;;;;;11.80;8.80;;;;;;;;;;5092877;28;20048;-63
2021/07/22 00:38:13;;;;;;;12.15;8.90;;;;;;;;;;5093385;28;20008;-63
2021/07/22 00:40:45;;;;;;;11.23;8.95;;;;;;;;;;5091999;28;20028;-63
2021/07/22 00:43:10;;;;;;;11.80;9.35;;;;;;;;;;5091114;28;20027;-63
2021/07/22 00:45:35;;;;;;;11.13;8.35;;;;;;;;;;5091963;28;20020;-63
2021/07/22 00:48:01;;;;;;;11.30;9.00;;;;;;;;;;5093135;28;20020;-63
2021/07/22 00:50:27;;;;;;;13.02;10.07;;;;;;;;;;5090375;28;20024;-63
2021/07/22 00:52:52;;;;;;;16.70;10.00;;;;;;;;;;5092769;28;20093;-63
2021/07/22 00:55:18;;;;;;;15.77;10.95;;;;;;;;;;5089995;28;20021;-63
2021/07/22 00:57:43;;;;;;;15.60;12.32;;;;;;;;;;5091893;28;20062;-62
2021/07/22 01:00:09;;;;;;;15.93;10.98;;;;;;;;;;5090938;28;20487;-62
2021/07/22 01:02:35;;;;;;;13.10;10.25;;;;;;;;;;5088016;28;20016;-62
2021/07/22 01:05:00;;;;;;;11.95;9.10;;;;;;;;;;5089801;28;20020;-62
2021/07/22 01:07:25;;;;;;;12.55;9.20;;;;;;;;;;5092999;28;20413;-62
2021/07/22 01:09:50;;;;;;;11.07;8.82;;;;;;;;;;5091408;28;20157;-62
2021/07/22 01:12:15;;;;;;;8.93;8.02;;;;;;;;;;5092233;28;20090;-62
2021/07/22 01:14:43;;;;;;;10.85;7.20;;;;;;;;;;5089753;28;20012;-62
2021/07/22 01:17:11;;;;;;;8.30;7.30;;;;;;;;;;5092897;28;20024;-62
2021/07/22 01:19:37;;;;;;;9.15;7.53;;;;;;;;;;5090895;28;20562;-62
2021/07/22 01:22:02;;;;;;;9.68;7.28;;;;;;;;;;5090400;28;20102;-62
2021/07/22 01:24:27;;;;;;;9.65;7.97;;;;;;;;;;5089518;28;20030;-62
2021/07/22 01:26:52;;;;;;;10.23;7.93;;;;;;;;;;5092933;28;20475;-62
2021/07/22 01:29:17;;;;;;;10.27;7.63;;;;;;;;;;5090838;28;20035;-62
2021/07/22 01:31:43;;;;;;;9.23;6.90;;;;;;;;;;5090948;28;20063;-62
2021/07/22 01:34:08;;;;;;;9.98;7.60;;;;;;;;;;5089658;28;20096;-63
2021/07/22 01:36:33;;;;;;;9.73;6.82;;;;;;;;;;5089257;28;20020;-63
2021/07/22 01:39:02;;;;;;;9.80;7.50;;;;;;;;;;5090943;28;20041;-61
2021/07/22 01:41:27;;;;;;;8.55;7.07;;;;;;;;;;5091675;28;20020;-62
2021/07/22 01:43:52;;;;;;;8.27;6.95;;;;;;;;;;5087871;28;20039;-62
2021/07/22 01:46:19;;;;;;;9.20;7.13;;;;;;;;;;5090487;28;20020;-63
2021/07/22 01:48:44;;;;;;;8.05;7.10;;;;;;;;;;5090691;28;20547;-62
2021/07/22 01:51:09;;;;;;;10.60;6.75;;;;;;;;;;5091022;28;20108;-62
2021/07/22 01:53:37;;;;;;;8.57;7.20;;;;;;;;;;5088718;28;20171;-61
2021/07/22 01:56:03;;;;;;;10.10;7.68;;;;;;;;;;5091365;28;20012;-64
2021/07/22 01:58:28;;;;;;;10.00;8.18;;;;;;;;;;5089362;28;20019;-62
2021/07/22 02:00:53;;;;;;;9.18;7.60;;;;;;;;;;5091200;28;20019;-63
2021/07/22 02:03:18;;;;;;;10.38;6.68;;;;;;;;;;5089824;28;20054;-63
2021/07/22 02:05:43;;;;;;;9.07;6.93;;;;;;;;;;5090318;28;20023;-63
2021/07/22 02:08:09;;;;;;;8.50;7.15;;;;;;;;;;5091922;28;20574;-62
2021/07/22 02:10:34;;;;;;;11.05;8.35;;;;;;;;;;5088948;28;20536;-62
2021/07/22 02:12:59;;;;;;;8.75;7.47;;;;;;;;;;5089994;28;20032;-62
2021/07/22 02:15:24;;;;;;;11.65;8.48;;;;;;;;;;5089621;28;20016;-62
2021/07/22 02:17:50;;;;;;;9.32;7.93;;;;;;;;;;5092369;28;20027;-62
2021/07/22 02:20:15;;;;;;;10.20;7.80;;;;;;;;;;5090900;28;20056;-63
2021/07/22 02:22:40;;;;;;;10.77;8.18;;;;;;;;;;5091240;28;20027;-63
2021/07/22 02:25:05;;;;;;;9.80;8.30;;;;;;;;;;5087455;28;20054;-63
2021/07/22 02:27:35;;;;;;;12.10;8.93;;;;;;;;;;5088987;28;20542;-63
2021/07/22 02:30:00;;;;;;;10.20;8.05;;;;;;;;;;5088745;28;20020;-62
2021/07/22 02:32:26;;;;;;;10.20;8.35;;;;;;;;;;5091299;28;20027;-62
2021/07/22 02:34:51;;;;;;;10.10;7.82;;;;;;;;;;5088605;28;20039;-62
2021/07/22 02:37:16;;;;;;;9.95;7.50;;;;;;;;;;5092341;28;20048;-64
2021/07/22 02:39:41;;;;;;;11.23;8.07;;;;;;;;;;5090050;28;20069;-62
2021/07/22 02:42:07;;;;;;;12.75;7.97;;;;;;;;;;5090212;28;20028;-62
2021/07/22 02:44:38;;;;;;;9.52;8.02;;;;;;;;;;5088437;28;20475;-61
2021/07/22 02:47:03;;;;;;;8.85;7.90;;;;;;;;;;5092572;28;20020;-64
2021/07/22 02:49:32;;;;;;;9.85;8.13;;;;;;;;;;5090457;28;20023;-64
2021/07/22 02:51:57;;;;;;;10.32;8.55;;;;;;;;;;5089260;28;20371;-62
2021/07/22 02:54:22;;;;;;;11.80;9.60;;;;;;;;;;5086541;28;20035;-64
2021/07/22 02:56:47;;;;;;;11.57;9.15;;;;;;;;;;5090679;28;20016;-62
2021/07/22 02:59:13;;;;;;;11.70;8.80;;;;;;;;;;5094083;28;20089;-64
2021/07/22 03:01:39;;;;;;;9.88;8.43;;;;;;;;;;5093897;28;20047;-62
2021/07/22 03:04:05;;;;;;;9.18;7.97;;;;;;;;;;5091402;28;20492;-63
2021/07/22 03:06:30;;;;;;;9.57;8.30;;;;;;;;;;5095329;28;20032;-62
2021/07/22 03:08:55;;;;;;;10.20;8.07;;;;;;;;;;5093764;28;20024;-62
2021/07/22 03:11:20;;;;;;;11.07;8.00;;;;;;;;;;5094538;28;20078;-62
2021/07/22 03:13:45;;;;;;;10.20;7.78;;;;;;;;;;5091685;28;20024;-63
2021/07/22 03:16:11;;;;;;;10.57;7.82;;;;;;;;;;5087084;28;20012;-61
2021/07/22 03:18:36;;;;;;;9.93;8.30;;;;;;;;;;5087381;28;20025;-62
2021/07/22 03:21:01;;;;;;;9.00;7.78;;;;;;;;;;5087882;28;20016;-61
2021/07/22 03:23:27;;;;;;;10.07;7.45;;;;;;;;;;5087659;28;20029;-62
2021/07/22 03:25:52;;;;;;;10.38;7.53;;;;;;;;;;5087163;28;20066;-62
2021/07/22 03:28:17;;;;;;;10.38;8.05;;;;;;;;;;5086385;28;20375;-62
2021/07/22 03:30:42;;;;;;;10.85;7.90;;;;;;;;;;5089837;28;20020;-62
2021/07/22 03:33:08;;;;;;;12.73;8.95;;;;;;;;;;5085741;28;20031;-62
2021/07/22 03:35:33;;;;;;;10.38;8.45;;;;;;;;;;5085860;28;20031;-62
2021/07/22 03:37:59;;;;;;;8.43;7.35;;;;;;;;;;5091660;28;20009;-62
2021/07/22 03:40:25;;;;;;;9.50;7.65;;;;;;;;;;5093836;28;20432;-62
2021/07/22 03:42:50;;;;;;;9.05;7.45;;;;;;;;;;5095021;28;20027;-62
2021/07/22 03:45:15;;;;;;;9.82;8.07;;;;;;;;;;5089438;28;20012;-62
2021/07/22 03:47:40;;;;;;;8.38;7.22;;;;;;;;;;5093031;28;20012;-62
2021/07/22 03:50:06;;;;;;;10.40;7.78;;;;;;;;;;5094553;28;20012;-63
2021/07/22 03:52:31;;;;;;;10.40;7.38;;;;;;;;;;5091640;28;20036;-63
2021/07/22 03:54:56;;;;;;;10.80;8.23;;;;;;;;;;5090380;28;20016;-63
2021/07/22 03:57:22;;;;;;;12.93;8.63;;;;;;;;;;5093678;28;20499;-63
2021/07/22 03:59:47;;;;;;;9.98;8.35;;;;;;;;;;5091438;28;20360;-62
2021/07/22 04:02:12;;;;;;;11.32;8.60;;;;;;;;;;5083133;28;20020;-63
2021/07/22 04:04:38;;;;;;;10.93;8.40;;;;;;;;;;5087253;28;20386;-63
2021/07/22 04:07:03;;;;;;;9.73;7.75;;;;;;;;;;5091331;28;20103;-63
2021/07/22 04:09:28;;;;;;;9.20;7.47;;;;;;;;;;5090394;28;20016;-62
2021/07/22 04:11:53;;;;;;;10.82;8.02;;;;;;;;;;5093989;28;20521;-62
2021/07/22 04:14:19;;;;;;;9.85;7.63;;;;;;;;;;5090739;28;20028;-63
2021/07/22 04:16:45;;;;;;;10.52;7.18;;;;;;;;;;5094098;28;20020;-62
2021/07/22 04:19:10;;;;;;;9.43;7.18;;;;;;;;;;5093416;28;20027;-63
2021/07/22 04:21:35;;;;;;;10.70;8.05;;;;;;;;;;5092776;28;20020;-63
2021/07/22 04:24:01;;;;;;;8.80;7.78;;;;;;;;;;5090792;28;20024;-62
2021/07/22 04:26:26;;;;;;;8.35;7.20;;;;;;;;;;5093011;28;20119;-63
2021/07/22 04:28:54;;;;;;;8.73;7.68;;;;;;;;;;5091951;28;20471;-63
2021/07/22 04:31:19;;;;;;;8.43;7.50;;;;;;;;;;5092847;28;20028;-63
2021/07/22 04:33:48;;;;;;;9.05;7.10;;;;;;;;;;5088998;28;20042;-63
2021/07/22 04:36:13;;;;;;;10.15;7.80;;;;;;;;;;5092259;28;20056;-63
2021/07/22 04:38:38;;;;;;;9.35;7.10;;;;;;;;;;5093498;28;20054;-63
2021/07/22 04:41:04;;;;;;;8.98;7.57;;;;;;;;;;5089096;28;20023;-62
2021/07/22 04:43:29;;;;;;;9.10;7.55;;;;;;;;;;5085231;28;20027;-63
2021/07/22 04:45:55;;;;;;;11.95;7.15;;;;;;;;;;5090771;28;20493;-62
2021/07/22 04:48:20;;;;;;;10.77;7.40;;;;;;;;;;5093780;28;20416;-62
2021/07/22 04:50:45;;;;;;;9.05;7.03;;;;;;;;;;5089628;28;20081;-62
2021/07/22 04:53:10;;;;;;;7.45;6.05;;;;;;;;;;5091352;28;20044;-62
2021/07/22 04:55:35;;;;;;;7.68;6.63;;;;;;;;;;5085863;28;20085;-62
2021/07/22 04:58:01;;;;;;;7.82;6.65;;;;;;;;;;5087047;28;20068;-62
2021/07/22 05:00:26;;;;;;;11.68;6.85;;;;;;;;;;5085351;28;20069;-62
2021/07/22 05:02:58;;;;;;;7.72;6.47;;;;;;;;;;5092700;28;20016;-63
2021/07/22 05:05:23;;;;;;;10.65;7.13;;;;;;;;;;5085248;28;20016;-63
2021/07/22 05:07:49;;;;;;;9.93;6.80;;;;;;;;;;5091297;28;20035;-62
2021/07/22 05:10:14;;;;;;;7.30;6.55;;;;;;;;;;5087721;28;20020;-60
2021/07/22 05:12:39;;;;;;;10.15;6.60;;;;;;;;;;5086061;28;20024;-61
2021/07/22 05:15:05;;;;;;;8.35;7.18;;;;;;;;;;5087345;28;20564;-62
2021/07/22 05:17:30;;;;;;;12.00;6.55;;;;;;;;;;5086284;28;20081;-62
2021/07/22 05:19:55;;;;;;;9.77;6.10;;;;;;;;;;5081801;28;20024;-61
2021/07/22 05:22:23;;;;;;;10.57;6.70;;;;;;;;;;5091699;28;20363;-61
2021/07/22 05:24:49;;;;;;;9.15;6.93;;;;;;;;;;5086422;28;20016;-61
2021/07/22 05:27:15;;;;;;;10.10;6.70;;;;;;;;;;5091205;28;20383;-61
2021/07/22 05:29:40;;;;;;;14.48;6.68;;;;;;;;;;5090938;28;20032;-63
2021/07/22 05:32:06;;;;;;;13.07;6.95;;;;;;;;;;5090160;28;20459;-62
2021/07/22 05:34:31;;;;;;;9.57;6.20;;;;;;;;;;5077272;28;20024;-62
2021/07/22 05:36:56;;;;;;;10.45;6.07;;;;;;;;;;5090364;28;20031;-63
2021/07/22 05:39:22;;;;;;;11.85;6.47;;;;;;;;;;5083009;28;20033;-62
2021/07/22 05:41:47;;;;;;;10.73;6.80;;;;;;;;;;5082948;28;20031;-61
2021/07/22 05:44:12;;;;;;;12.45;7.03;;;;;;;;;;5078624;28;20029;-63
2021/07/22 05:46:37;;;;;;;10.10;6.22;;;;;;;;;;5090344;28;20028;-63
2021/07/22 05:49:02;;;;;;;10.77;6.85;;;;;;;;;;5089059;28;20395;-62
2021/07/22 05:51:31;;;;;;;12.40;7.53;;;;;;;;;;5091811;28;20378;-63
2021/07/22 05:53:56;;;;;;;8.35;6.72;;;;;;;;;;5087144;28;20041;-63
2021/07/22 05:56:21;;;;;;;8.77;6.15;;;;;;;;;;5091738;28;20069;-63
2021/07/22 05:58:47;;;;;;;9.90;6.80;;;;;;;;;;5072028;28;20030;-63
2021/07/22 06:01:12;;;;;;;10.07;6.00;;;;;;;;;;5089731;28;20077;-63
2021/07/22 06:03:37;;;;;;;12.45;7.03;;;;;;;;;;5088539;28;20107;-63
2021/07/22 06:06:06;;;;;;;10.60;6.97;;;;;;;;;;5089962;28;20020;-63
2021/07/22 06:08:33;;;;;;;10.57;6.72;;;;;;;;;;5075621;28;20020;-63
2021/07/22 06:10:58;;;;;;;10.70;7.07;;;;;;;;;;5081914;28;20028;-63
2021/07/22 06:13:24;;;;;;;10.88;7.63;;;;;;;;;;5078377;28;20020;-62
2021/07/22 06:15:49;;;;;;;8.20;6.07;;;;;;;;;;5081344;28;20025;-63
2021/07/22 06:18:14;;;;;;;7.20;6.13;;;;;;;;;;5083278;28;20442;-64
2021/07/22 06:20:39;;;;;;;8.77;6.43;;;;;;;;;;5082284;28;20471;-62
2021/07/22 06:23:04;;;;;;;9.23;6.30;;;;;;;;;;5083142;28;20024;-62
2021/07/22 06:25:30;;;;;;;9.70;6.25;;;;;;;;;;5086574;28;20024;-61
2021/07/22 06:27:55;;;;;;;8.27;5.45;;;;;;;;;;5091377;28;20027;-63
2021/07/22 06:30:20;;;;;;;8.25;6.70;;;;;;;;;;5089596;28;20107;-63
2021/07/22 06:32:45;;;;;;;8.82;6.13;;;;;;;;;;5093268;28;20073;-62
2021/07/22 06:35:11;;;;;;;7.90;6.15;;;;;;;;;;5089808;28;20058;-62
2021/07/22 06:37:54;;;;;;;10.02;6.22;;;;;;;;;;5095212;28;20058;-63
2021/07/22 06:40:19;;;;;;;11.65;6.35;;;;;;;;;;5095453;28;20486;-62
2021/07/22 06:42:45;;;;;;;6.68;5.93;;;;;;;;;;5093408;28;20027;-63
2021/07/22 06:45:10;;;;;;;9.32;6.43;;;;;;;;;;5090677;28;20020;-63
2021/07/22 06:47:39;;;;;;;10.63;5.95;;;;;;;;;;5095942;28;20454;-62
2021/07/22 06:50:05;;;;;;;9.75;6.00;;;;;;;;;;5093118;28;20479;-62
2021/07/22 06:52:30;;;;;;;8.80;5.90;;;;;;;;;;5084879;28;20039;-62
2021/07/22 06:54:55;;;;;;;7.88;5.60;;;;;;;;;;5092337;28;20020;-62
2021/07/22 06:57:20;;;;;;;8.43;5.40;;;;;;;;;;5092063;28;20348;-62
2021/07/22 06:59:46;;;;;;;8.93;6.45;;;;;;;;;;5093687;28;20008;-62
2021/07/22 07:02:11;;;;;;;8.95;6.03;;;;;;;;;;5086430;28;20066;-63
2021/07/22 07:04:36;;;;;;;8.38;5.80;;;;;;;;;;5089441;28;20016;-63
2021/07/22 07:07:01;;;;;;;6.20;5.05;;;;;;;;;;5095547;28;20069;-63
2021/07/22 07:09:27;;;;;;;6.20;5.40;;;;;;;;;;5095709;28;20036;-62
2021/07/22 07:11:52;;;;;;;8.35;5.60;;;;;;;;;;5092506;28;20056;-62
2021/07/22 07:14:17;;;;;;;6.88;5.22;;;;;;;;;;5091458;28;20455;-62
2021/07/22 07:16:42;;;;;;;9.10;5.25;;;;;;;;;;5093719;28;20012;-64
2021/07/22 07:19:08;;;;;;;8.07;5.75;;;;;;;;;;5092764;28;20057;-65
2021/07/22 07:21:39;;;;;;;5.90;5.35;;;;;;;;;;5082492;28;20033;-62
2021/07/22 07:24:07;;;;;;;6.85;5.05;;;;;;;;;;5083993;28;20028;-65
2021/07/22 07:26:32;;;;;;;7.50;5.32;;;;;;;;;;5080297;28;20028;-63
2021/07/22 07:28:57;;;;;;;6.45;4.78;;;;;;;;;;5086465;28;20040;-61
2021/07/22 07:31:23;;;;;;;5.88;5.15;;;;;;;;;;5076591;28;20472;-63
2021/07/22 07:33:48;;;;;;;6.70;5.57;;;;;;;;;;5084836;28;20017;-63
2021/07/22 07:36:13;;;;;;;8.90;6.07;;;;;;;;;;5092682;28;20027;-63
2021/07/22 07:38:39;;;;;;;6.70;5.65;;;;;;;;;;5092700;28;20066;-63
2021/07/22 07:41:04;;;;;;;10.20;5.77;;;;;;;;;;5093466;28;20031;-63
2021/07/22 07:43:29;;;;;;;6.95;5.78;;;;;;;;;;5083528;28;20270;-63
2021/07/22 07:45:54;;;;;;;7.60;5.65;;;;;;;;;;5088078;28;20535;-63
2021/07/22 07:48:20;;;;;;;9.20;5.47;;;;;;;;;;5087224;28;20016;-63
2021/07/22 07:50:45;;;;;;;7.60;5.53;;;;;;;;;;5091995;28;20285;-63
2021/07/22 07:53:11;;;;;;;7.40;6.30;;;;;;;;;;5092595;28;20731;-63
2021/07/22 07:55:36;;;;;;;7.55;5.78;;;;;;;;;;5092149;28;20678;-62
2021/07/22 07:58:01;;;;;;;8.52;6.40;;;;;;;;;;5094320;28;20020;-63
2021/07/22 08:00:27;;;;;;;7.10;5.88;;;;;;;;;;5092990;28;20024;-62
2021/07/22 08:02:58;;;;;;;8.93;6.20;;;;;;;;;;5090791;28;20016;-61
2021/07/22 08:05:23;;;;;;;7.72;6.20;;;;;;;;;;5089571;28;20930;-62
2021/07/22 08:07:48;;;;;;;7.72;6.32;;;;;;;;;;5081457;28;20104;-64
2021/07/22 08:10:13;;;;;;;7.03;5.97;;;;;;;;;;5090736;28;20051;-62
2021/07/22 08:12:39;;;;;;;7.65;6.28;;;;;;;;;;5091167;28;20286;-63
2021/07/22 08:15:10;;;;;;;8.65;6.13;;;;;;;;;;5088592;28;20035;-66
2021/07/22 08:17:35;;;;;;;7.68;6.07;;;;;;;;;;5084150;28;20043;-64
2021/07/22 08:20:02;;;;;;;8.18;6.68;;;;;;;;;;5093081;28;20020;-62
2021/07/22 08:22:28;;;;;;;8.02;5.88;;;;;;;;;;5079455;28;20122;-63
2021/07/22 08:24:53;;;;;;;7.47;6.20;;;;;;;;;;5077487;28;20103;-63
2021/07/22 08:27:25;;;;;;;7.18;6.40;;;;;;;;;;5082307;28;20111;-63
2021/07/22 08:29:50;;;;;;;11.00;6.60;;;;;;;;;;5085423;28;20024;-63
2021/07/22 08:32:16;;;;;;;9.02;7.45;;;;;;;;;;5078147;28;20488;-63
2021/07/22 08:34:41;;;;;;;8.43;7.40;;;;;;;;;;5079822;28;20027;-63
2021/07/22 08:37:08;;;;;;;8.27;6.93;;;;;;;;;;5091321;28;20258;-63
2021/07/22 08:39:40;;;;;;;8.60;7.30;;;;;;;;;;5078893;28;20696;-63
2021/07/22 08:42:06;;;;;;;9.07;7.95;;;;;;;;;;5086172;28;20015;-61
2021/07/22 08:44:32;;;;;;;9.63;7.95;;;;;;;;;;5079279;28;20025;-63
2021/07/22 08:46:58;;;;;;;7.85;7.05;;;;;;;;;;5073457;28;20028;-63
2021/07/22 08:49:24;;;;;;;11.07;7.43;;;;;;;;;;5088834;28;20026;-64
2021/07/22 08:51:51;;;;;;;9.55;7.78;;;;;;;;;;5075055;28;20028;-62
2021/07/22 08:54:16;;;;;;;8.57;7.70;;;;;;;;;;5077707;28;20040;-62
2021/07/22 08:56:41;;;;;;;9.25;7.90;;;;;;;;;;5087334;28;20085;-63
2021/07/22 08:59:07;;;;;;;9.10;8.15;;;;;;;;;;5073421;28;20021;-63
2021/07/22 09:01:35;;;;;;;12.57;9.30;;;;;;;;;;5084840;28;20055;-63
2021/07/22 09:04:00;;;;;;;10.13;9.10;;;;;;;;;;5084022;28;20125;-63
2021/07/22 09:06:26;;;;;;;10.48;9.38;;;;;;;;;;5083899;28;20050;-63
2021/07/22 09:08:51;;;;;;;11.00;9.90;;;;;;;;;;5080423;28;20025;-63
2021/07/22 09:11:16;;;;;;;11.13;10.07;;;;;;;;;;5091077;28;20101;-63
2021/07/22 09:13:42;;;;;;;11.95;9.63;;;;;;;;;;5078998;28;20043;-64
2021/07/22 09:16:08;;;;;;;10.27;9.05;;;;;;;;;;5085559;28;20452;-64
2021/07/22 09:18:38;;;;;;;9.98;8.98;;;;;;;;;;5092086;28;20375;-64
2021/07/22 09:21:21;;;;;;;11.02;9.35;;;;;;;;;;5086698;28;20028;-65
2021/07/22 09:24:02;;;;;;;10.23;9.13;;;;;;;;;;5076809;28;20051;-65
2021/07/22 09:26:31;;;;;;;11.02;9.43;;;;;;;;;;5088662;28;20063;-64
2021/07/22 09:29:07;;;;;;;9.43;8.50;;;;;;;;;;5087833;28;20031;-63
2021/07/22 09:31:32;;;;;;;10.23;9.18;;;;;;;;;;5072966;28;20038;-63
2021/07/22 09:33:58;;;;;;;9.43;8.30;;;;;;;;;;5083476;28;20024;-63
2021/07/22 09:36:26;;;;;;;13.52;9.98;;;;;;;;;;5090536;28;20075;-63
2021/07/22 09:38:51;;;;;;;10.02;9.05;;;;;;;;;;5082484;28;20016;-64
2021/07/22 09:41:23;;;;;;;10.70;9.10;;;;;;;;;;5086177;28;20367;-64
2021/07/22 09:43:49;;;;;;;10.40;9.30;;;;;;;;;;5087398;28;20274;-63
2021/07/22 09:46:15;;;;;;;9.63;8.73;;;;;;;;;;5089840;28;20027;-62
2021/07/22 09:48:59;;;;;;;10.25;9.25;;;;;;;;;;5087334;28;20031;-64
2021/07/22 09:51:30;;;;;;;9.95;8.98;;;;;;;;;;5072486;28;20067;-63
2021/07/22 09:54:06;;;;;;;9.90;8.90;;;;;;;;;;5087338;28;20085;-64
2021/07/22 09:56:38;;;;;;;9.95;8.98;;;;;;;;;;5090378;28;20455;-64
2021/07/22 09:59:04;;;;;;;9.63;8.52;;;;;;;;;;5079972;28;20020;-63
2021/07/22 10:01:53;;;;;;;9.98;8.98;;;;;;;;;;5084710;28;20091;-63
2021/07/22 10:04:20;;;;;;;9.27;7.93;;;;;;;;;;5083291;28;20073;-64
2021/07/22 10:06:47;;;;;;;9.93;8.30;;;;;;;;;;5087823;28;20012;-63
2021/07/22 10:09:16;;;;;;;10.07;8.23;;;;;;;;;;5080682;28;20032;-63
2021/07/22 10:11:41;;;;;;;10.13;9.13;;;;;;;;;;5087976;28;20050;-64
2021/07/22 10:14:07;;;;;;;9.75;8.75;;;;;;;;;;5086486;28;20012;-64
2021/07/22 10:16:32;;;;;;;8.57;7.78;;;;;;;;;;5085560;28;20073;-64
2021/07/22 10:18:58;;;;;;;9.35;7.90;;;;;;;;;;5091376;28;20645;-63
2021/07/22 10:21:25;;;;;;;10.40;8.27;;;;;;;;;;5084715;28;20024;-63
2021/07/22 10:23:50;;;;;;;8.77;7.82;;;;;;;;;;5086067;28;20024;-63
2021/07/22 10:26:17;;;;;;;9.23;8.32;;;;;;;;;;5090988;28;20027;-64
2021/07/22 10:28:42;;;;;;;9.00;8.10;;;;;;;;;;5087801;28;20016;-64
2021/07/22 10:31:08;;;;;;;10.05;8.60;;;;;;;;;;5087103;28;20363;-65
2021/07/22 10:33:34;;;;;;;9.07;8.18;;;;;;;;;;5085900;28;20012;-63
2021/07/22 10:36:00;;;;;;;10.00;8.15;;;;;;;;;;5090805;28;20012;-63
2021/07/22 10:38:40;;;;;;;8.90;8.00;;;;;;;;;;5091247;28;20361;-63
2021/07/22 10:41:05;;;;;;;9.13;8.23;;;;;;;;;;5074179;28;20020;-63
2021/07/22 10:43:37;;;;;;;9.33;8.37;;;;;;;;;;5069445;28;20028;-63
2021/07/22 10:46:05;;;;;;;8.80;8.00;;;;;;;;;;5088381;28;20250;-64
2021/07/22 10:48:31;;;;;;;8.60;7.78;;;;;;;;;;5090942;28;20020;-63
2021/07/22 10:50:56;;;;;;;8.07;7.18;;;;;;;;;;5087935;28;20111;-63
2021/07/22 10:53:40;;;;;;;8.77;7.87;;;;;;;;;;5087095;28;20265;-64
2021/07/22 10:56:06;;;;;;;8.88;7.82;;;;;;;;;;5079344;28;20304;-64
2021/07/22 10:58:34;;;;;;;8.68;7.88;;;;;;;;;;5087104;28;20036;-63
2021/07/22 11:01:03;;;;;;;8.25;7.40;;;;;;;;;;5076263;28;20021;-63
2021/07/22 11:03:34;;;;;;;9.45;8.43;;;;;;;;;;5073988;28;20024;-63
2021/07/22 11:06:04;;;;;;;8.48;7.68;;;;;;;;;;5090276;28;20024;-63
2021/07/22 11:08:29;;;;;;;9.60;8.57;;;;;;;;;;5090470;28;20451;-63
2021/07/22 11:10:56;;;;;;;8.40;7.65;;;;;;;;;;5090250;28;20050;-64
2021/07/22 11:13:36;;;;;;;9.10;8.15;;;;;;;;;;5079643;28;20434;-63
2021/07/22 11:16:02;;;;;;;8.77;7.25;;;;;;;;;;5085232;28;20085;-64
2021/07/22 11:18:39;;;;;;;9.20;7.80;;;;;;;;;;5090145;28;20035;-62
2021/07/22 11:21:05;;;;;;;8.93;8.05;;;;;;;;;;5084420;28;20024;-65
2021/07/22 11:23:30;;;;;;;8.35;7.40;;;;;;;;;;5078426;28;20453;-64
2021/07/22 11:25:55;;;;;;;8.77;7.87;;;;;;;;;;5096058;28;20020;-64
2021/07/22 11:28:24;;;;;;;7.73;6.93;;;;;;;;;;5091337;28;20285;-63
2021/07/22 11:30:59;;;;;;;8.00;7.13;;;;;;;;;;5091673;28;20274;-63
2021/07/22 11:33:25;;;;;;;8.80;7.70;;;;;;;;;;5093732;28;20527;-63
2021/07/22 11:35:54;;;;;;;8.40;7.60;;;;;;;;;;5095313;28;20020;-64
2021/07/22 11:38:20;;;;;;;8.23;7.50;;;;;;;;;;5091926;28;20019;-64
2021/07/22 11:40:45;;;;;;;7.93;7.23;;;;;;;;;;5096025;28;20008;-64
2021/07/22 11:43:11;;;;;;;8.00;7.23;;;;;;;;;;5089142;28;20274;-64
2021/07/22 11:45:43;;;;;;;8.38;7.57;;;;;;;;;;5092660;28;20254;-64
2021/07/22 11:48:21;;;;;;;7.88;7.15;;;;;;;;;;5094171;28;20317;-63
2021/07/22 11:50:57;;;;;;;7.63;6.95;;;;;;;;;;5095174;28;20016;-62
2021/07/22 11:53:22;;;;;;;7.40;6.80;;;;;;;;;;5090430;28;20091;-63
2021/07/22 11:55:47;;;;;;;7.77;6.63;;;;;;;;;;5094138;28;20497;-64
2021/07/22 11:58:14;;;;;;;7.60;6.93;;;;;;;;;;5091387;28;20024;-64
2021/07/22 12:00:39;;;;;;;7.13;6.28;;;;;;;;;;5084924;28;20020;-64
2021/07/22 12:03:05;;;;;;;7.47;6.78;;;;;;;;;;5089973;28;20027;-64
2021/07/22 12:05:30;;;;;;;8.30;7.50;;;;;;;;;;5083728;28;20092;-63
2021/07/22 12:08:12;;;;;;;7.75;7.00;;;;;;;;;;5092668;28;20110;-64
2021/07/22 12:10:37;;;;;;;7.80;7.10;;;;;;;;;;5090532;28;20032;-64
2021/07/22 12:13:03;;;;;;;7.53;6.85;;;;;;;;;;5089976;28;20383;-64
2021/07/22 12:15:29;;;;;;;7.43;6.72;;;;;;;;;;5093060;28;20057;-63
2021/07/22 12:17:54;;;;;;;7.35;6.75;;;;;;;;;;5093169;28;20328;-64
2021/07/22 12:20:19;;;;;;;7.10;6.32;;;;;;;;;;5091602;28;20051;-63
2021/07/22 12:22:44;;;;;;;6.57;6.07;;;;;;;;;;5093123;28;20100;-64
2021/07/22 12:25:11;;;;;;;7.10;6.40;;;;;;;;;;5088844;28;20274;-64
2021/07/22 12:27:43;;;;;;;6.88;6.07;;;;;;;;;;5087126;28;20020;-64
2021/07/22 12:30:16;;;;;;;7.55;6.50;;;;;;;;;;5087983;28;20029;-63
2021/07/22 12:33:11;;;;;;;6.97;6.38;;;;;;;;;;5089518;28;20352;-63
2021/07/22 12:35:45;;;;;;;6.90;6.30;;;;;;;;;;5068928;28;20096;-63
2021/07/22 12:38:10;;;;;;;;;;;;;;;;;;5077695;28;20077;-67
2021/07/22 12:40:40;;;;;;;7.05;6.35;;;;;;;;;;5091404;28;19908;-67
2021/07/22 12:43:06;;;;;;;6.78;6.18;;;;;;;;;;5091562;28;20076;-67
2021/07/22 12:45:31;;;;;;;6.88;6.32;;;;;;;;;;5092205;28;20080;-67
2021/07/22 12:47:57;;;;;;;6.47;5.95;;;;;;;;;;5093555;28;20420;-67
2021/07/22 12:50:35;;;;;;;6.03;5.50;;;;;;;;;;5093478;28;20016;-67
2021/07/22 12:53:05;;;;;;;6.10;5.57;;;;;;;;;;5089673;28;20497;-69
2021/07/22 12:55:31;;;;;;;6.90;6.00;;;;;;;;;;5090875;28;20024;-68
2021/07/22 12:57:56;;;;;;;6.30;5.70;;;;;;;;;;5092897;28;20016;-67
2021/07/22 13:00:21;;;;;;;6.03;5.53;;;;;;;;;;5093337;28;20471;-68
2021/07/22 13:02:57;;;;;;;6.50;5.90;;;;;;;;;;5093546;28;20647;-67
2021/07/22 13:05:22;;;;;;;6.07;5.57;;;;;;;;;;5090892;28;20020;-67
2021/07/22 13:07:49;;;;;;;5.93;5.30;;;;;;;;;;5093022;28;20052;-68
2021/07/22 13:10:15;;;;;;;6.38;5.85;;;;;;;;;;5092465;28;20081;-67
2021/07/22 13:12:40;;;;;;;5.82;5.20;;;;;;;;;;5089199;28;20032;-67
2021/07/22 13:15:06;;;;;;;5.55;4.78;;;;;;;;;;5085175;28;20554;-68
2021/07/22 13:17:38;;;;;;;6.18;5.57;;;;;;;;;;5082987;28;20534;-67
2021/07/22 13:20:03;;;;;;;5.63;5.13;;;;;;;;;;5092418;28;20027;-67
2021/07/22 13:22:28;;;;;;;6.45;5.28;;;;;;;;;;5091947;28;20016;-68
2021/07/22 13:24:53;;;;;;;6.17;5.67;;;;;;;;;;5088514;28;20471;-67
2021/07/22 13:27:19;;;;;;;6.40;5.80;;;;;;;;;;5090853;28;20526;-68
2021/07/22 13:29:44;;;;;;;5.93;5.43;;;;;;;;;;5089945;28;20011;-68
2021/07/22 13:32:10;;;;;;;5.75;5.25;;;;;;;;;;5091158;28;20032;-69
2021/07/22 13:34:37;;;;;;;6.40;5.80;;;;;;;;;;5084764;28;20016;-68
2021/07/22 13:37:02;;;;;;;5.97;5.40;;;;;;;;;;5084706;28;20020;-68
2021/07/22 13:39:27;;;;;;;6.60;6.07;;;;;;;;;;5091917;28;20035;-68
2021/07/22 13:41:53;;;;;;;5.87;5.27;;;;;;;;;;5085962;28;20028;-67
2021/07/22 13:44:18;;;;;;;5.57;5.07;;;;;;;;;;5089609;28;20024;-68
2021/07/22 13:46:43;;;;;;;5.23;4.83;;;;;;;;;;5089124;28;20020;-69
2021/07/22 13:49:08;;;;;;;5.77;5.17;;;;;;;;;;5085510;28;20375;-68
2021/07/22 13:51:33;;;;;;;5.80;5.20;;;;;;;;;;5092111;28;20046;-68
2021/07/22 13:53:59;;;;;;;5.40;5.00;;;;;;;;;;5084658;28;20083;-69
2021/07/22 13:56:24;;;;;;;5.87;5.37;;;;;;;;;;5084523;28;20043;-68
2021/07/22 13:58:49;;;;;;;6.07;5.57;;;;;;;;;;5092002;28;20319;-68
2021/07/22 14:01:14;;;;;;;6.00;5.20;;;;;;;;;;5076974;28;20040;-67
2021/07/22 14:03:39;;;;;;;5.40;5.00;;;;;;;;;;5070019;28;20112;-66
2021/07/22 14:06:05;;;;;;;7.87;5.30;;;;;;;;;;5080611;28;20115;-69
2021/07/22 14:08:30;;;;;;;5.73;5.23;;;;;;;;;;5091726;28;20117;-68
2021/07/22 14:10:55;;;;;;;5.63;4.93;;;;;;;;;;5091633;28;20386;-68
2021/07/22 14:13:20;;;;;;;6.00;5.50;;;;;;;;;;5085828;28;20020;-69
2021/07/22 14:15:45;;;;;;;5.20;4.80;;;;;;;;;;5092681;28;20015;-69
2021/07/22 14:18:11;;;;;;;5.80;5.28;;;;;;;;;;5092000;28;20012;-68
2021/07/22 14:20:37;;;;;;;5.55;5.03;;;;;;;;;;5090556;28;20375;-69
2021/07/22 14:23:02;;;;;;;5.05;4.55;;;;;;;;;;5081434;28;20464;-68
2021/07/22 14:25:27;;;;;;;5.00;4.50;;;;;;;;;;5090366;28;20024;-68
2021/07/22 14:27:53;;;;;;;5.30;4.68;;;;;;;;;;5085934;28;20486;-68
2021/07/22 14:30:18;;;;;;;5.63;5.00;;;;;;;;;;5086120;28;20053;-67
2021/07/22 14:32:43;;;;;;;5.87;5.10;;;;;;;;;;5089817;28;20450;-66
2021/07/22 14:35:09;;;;;;;6.68;4.65;;;;;;;;;;5088482;28;20258;-69